sensor_id;sensor_type;location;lat;lon;timestamp;temperature;humidity
39345;DHT22;25061;51.954;6.996;2023-10-19T04:32:29;11.50;99.90
39345;DHT22;25061;51.954;6.996;2023-10-19T04:34:57;11.50;99.90
39345;DHT22;25061;51.954;6.996;2023-10-19T04:37:24;11.50;99.90
39345;DHT22;25061;51.954;6.996;2023-10-19T04:39:50;11.40;99.90
39345;DHT22;25061;51.954;6.996;2023-10-19T04:42:16;11.50;99.90
39345;DHT22;25061;51.954;6.996;2023-10-19T04:44:48;11.50;99.90
39345;DHT22;25061;51.954;6.996;2023-10-19T04:47:13;11.50;99.90
39345;DHT22;25061;51.954;6.996;2023-10-19T04:49:39;11.70;99.90
39345;DHT22;25061;51.954;6.996;2023-10-19T04:52:04;11.50;99.90
39345;DHT22;25061;51.954;6.996;2023-10-19T04:54:30;11.70;99.90
39345;DHT22;25061;51.954;6.996;2023-10-19T04:56:56;11.60;99.90
39345;DHT22;25061;51.954;6.996;2023-10-19T04:59:22;11.60;99.90
39345;DHT22;25061;51.954;6.996;2023-10-19T05:01:47;11.80;99.90
39345;DHT22;25061;51.954;6.996;2023-10-19T05:04:15;11.80;99.90
39345;DHT22;25061;51.954;6.996;2023-10-19T05:06:42;11.80;99.90
39345;DHT22;25061;51.954;6.996;2023-10-19T05:09:08;11.70;99.90
39345;DHT22;25061;51.954;6.996;2023-10-19T05:11:33;11.90;99.90
39345;DHT22;25061;51.954;6.996;2023-10-19T05:13:59;11.70;99.90
39345;DHT22;25061;51.954;6.996;2023-10-19T05:16:24;11.90;99.90
39345;DHT22;25061;51.954;6.996;2023-10-19T05:18:51;11.90;99.90
39345;DHT22;25061;51.954;6.996;2023-10-19T05:21:17;11.80;99.90
39345;DHT22;25061;51.954;6.996;2023-10-19T05:23:42;11.90;99.90
39345;DHT22;25061;51.954;6.996;2023-10-19T05:26:08;11.80;99.90
39345;DHT22;25061;51.954;6.996;2023-10-19T05:28:34;12.00;99.90
39345;DHT22;25061;51.954;6.996;2023-10-19T05:30:59;11.90;99.90
39345;DHT22;25061;51.954;6.996;2023-10-19T05:33:27;12.00;99.90
39345;DHT22;25061;51.954;6.996;2023-10-19T05:35:54;11.90;99.90
39345;DHT22;25061;51.954;6.996;2023-10-19T05:38:20;12.00;99.90
39345;DHT22;25061;51.954;6.996;2023-10-19T05:40:47;12.20;99.90
39345;DHT22;25061;51.954;6.996;2023-10-19T05:43:15;12.10;99.90
39345;DHT22;25061;51.954;6.996;2023-10-19T05:45:41;12.30;99.90
39345;DHT22;25061;51.954;6.996;2023-10-19T05:48:07;12.30;99.90
39345;DHT22;25061;51.954;6.996;2023-10-19T05:50:35;12.20;99.90
39345;DHT22;25061;51.954;6.996;2023-10-19T05:53:03;12.30;99.90
39345;DHT22;25061;51.954;6.996;2023-10-19T05:55:29;12.40;99.90
39345;DHT22;25061;51.954;6.996;2023-10-19T05:57:55;12.40;99.90
39345;DHT22;25061;51.954;6.996;2023-10-19T06:00:21;12.40;99.90
39345;DHT22;25061;51.954;6.996;2023-10-19T06:02:51;12.50;99.90
39345;DHT22;25061;51.954;6.996;2023-10-19T06:05:18;12.50;99.90
39345;DHT22;25061;51.954;6.996;2023-10-19T06:07:48;12.60;99.90
39345;DHT22;25061;51.954;6.996;2023-10-19T06:10:16;12.60;99.90
39345;DHT22;25061;51.954;6.996;2023-10-19T06:12:50;12.80;99.90
39345;DHT22;25061;51.954;6.996;2023-10-19T06:15:17;12.80;99.90
39345;DHT22;25061;51.954;6.996;2023-10-19T06:17:43;12.80;99.90
39345;DHT22;25061;51.954;6.996;2023-10-19T06:20:11;12.70;99.90
39345;DHT22;25061;51.954;6.996;2023-10-19T06:22:53;12.90;99.90
39345;DHT22;25061;51.954;6.996;2023-10-19T06:25:24;12.80;99.90
39345;DHT22;25061;51.954;6.996;2023-10-19T06:27:51;12.90;99.90
39345;DHT22;25061;51.954;6.996;2023-10-19T06:30:18;12.90;99.90
39345;DHT22;25061;51.954;6.996;2023-10-19T06:32:49;12.90;99.90
39345;DHT22;25061;51.954;6.996;2023-10-19T06:35:16;13.00;99.90
39345;DHT22;25061;51.954;6.996;2023-10-19T06:37:42;13.00;99.90
39345;DHT22;25061;51.954;6.996;2023-10-19T06:40:09;13.00;99.90
39345;DHT22;25061;51.954;6.996;2023-10-19T06:42:37;13.00;99.90
39345;DHT22;25061;51.954;6.996;2023-10-19T06:45:03;13.00;99.90
39345;DHT22;25061;51.954;6.996;2023-10-19T06:47:29;13.00;99.90
39345;DHT22;25061;51.954;6.996;2023-10-19T06:49:55;13.00;99.90
39345;DHT22;25061;51.954;6.996;2023-10-19T06:52:22;13.00;99.90
39345;DHT22;25061;51.954;6.996;2023-10-19T06:54:50;12.90;99.90
39345;DHT22;25061;51.954;6.996;2023-10-19T06:57:15;13.10;99.90
39345;DHT22;25061;51.954;6.996;2023-10-19T06:59:41;13.10;99.90
39345;DHT22;25061;51.954;6.996;2023-10-19T07:02:08;13.20;99.90
39345;DHT22;25061;51.954;6.996;2023-10-19T07:04:34;13.10;99.90
39345;DHT22;25061;51.954;6.996;2023-10-19T07:06:59;13.20;99.90
39345;DHT22;25061;51.954;6.996;2023-10-19T07:09:26;13.20;99.90
39345;DHT22;25061;51.954;6.996;2023-10-19T07:11:52;13.30;99.90
39345;DHT22;25061;51.954;6.996;2023-10-19T07:14:20;13.30;99.90
39345;DHT22;25061;51.954;6.996;2023-10-19T07:16:48;13.20;99.90
39345;DHT22;25061;51.954;6.996;2023-10-19T07:19:14;13.20;99.90
39345;DHT22;25061;51.954;6.996;2023-10-19T07:21:40;13.30;99.90
39345;DHT22;25061;51.954;6.996;2023-10-19T07:24:08;13.30;99.90
39345;DHT22;25061;51.954;6.996;2023-10-19T07:26:36;13.20;99.90
39345;DHT22;25061;51.954;6.996;2023-10-19T07:29:09;13.20;99.90
39345;DHT22;25061;51.954;6.996;2023-10-19T07:31:35;13.20;99.90
39345;DHT22;25061;51.954;6.996;2023-10-19T07:34:01;13.20;99.90
39345;DHT22;25061;51.954;6.996;2023-10-19T07:36:29;13.30;99.90
39345;DHT22;25061;51.954;6.996;2023-10-19T07:38:54;13.20;99.90
39345;DHT22;25061;51.954;6.996;2023-10-19T07:41:20;13.20;99.90
39345;DHT22;25061;51.954;6.996;2023-10-19T07:43:46;13.30;99.90
39345;DHT22;25061;51.954;6.996;2023-10-19T07:46:12;13.30;99.90
39345;DHT22;25061;51.954;6.996;2023-10-19T07:48:41;13.30;99.90
39345;DHT22;25061;51.954;6.996;2023-10-19T07:51:08;13.30;99.90
39345;DHT22;25061;51.954;6.996;2023-10-19T07:53:36;13.40;99.90
39345;DHT22;25061;51.954;6.996;2023-10-19T07:56:02;13.40;99.90
39345;DHT22;25061;51.954;6.996;2023-10-19T07:58:28;13.30;99.90
39345;DHT22;25061;51.954;6.996;2023-10-19T08:00:54;13.40;99.90
39345;DHT22;25061;51.954;6.996;2023-10-19T08:03:22;13.40;99.90
39345;DHT22;25061;51.954;6.996;2023-10-19T08:05:47;13.50;99.90
39345;DHT22;25061;51.954;6.996;2023-10-19T08:08:13;13.40;99.90
39345;DHT22;25061;51.954;6.996;2023-10-19T08:10:38;13.50;99.90
39345;DHT22;25061;51.954;6.996;2023-10-19T08:13:04;13.50;99.90
39345;DHT22;25061;51.954;6.996;2023-10-19T08:15:30;13.50;99.90
39345;DHT22;25061;51.954;6.996;2023-10-19T08:17:56;13.50;99.90
39345;DHT22;25061;51.954;6.996;2023-10-19T08:20:22;13.60;99.90
39345;DHT22;25061;51.954;6.996;2023-10-19T08:22:58;13.60;99.90
39345;DHT22;25061;51.954;6.996;2023-10-19T08:25:25;13.70;99.90
39345;DHT22;25061;51.954;6.996;2023-10-19T08:27:52;13.60;99.90
39345;DHT22;25061;51.954;6.996;2023-10-19T08:30:22;13.70;99.90
39345;DHT22;25061;51.954;6.996;2023-10-19T08:32:48;13.60;99.90
39345;DHT22;25061;51.954;6.996;2023-10-19T08:35:16;13.70;99.90
39345;DHT22;25061;51.954;6.996;2023-10-19T08:37:55;13.70;99.90
39345;DHT22;25061;51.954;6.996;2023-10-19T08:40:24;13.70;99.90
39345;DHT22;25061;51.954;6.996;2023-10-19T08:42:52;13.80;99.90
39345;DHT22;25061;51.954;6.996;2023-10-19T08:45:19;13.80;99.90
39345;DHT22;25061;51.954;6.996;2023-10-19T08:47:55;13.80;99.90
39345;DHT22;25061;51.954;6.996;2023-10-19T08:50:32;13.80;99.90
39345;DHT22;25061;51.954;6.996;2023-10-19T08:53:00;13.70;99.90
39345;DHT22;25061;51.954;6.996;2023-10-19T08:55:29;13.80;99.90
39345;DHT22;25061;51.954;6.996;2023-10-19T08:58:00;13.80;99.90
39345;DHT22;25061;51.954;6.996;2023-10-19T09:00:26;13.80;99.90
39345;DHT22;25061;51.954;6.996;2023-10-19T09:02:53;13.90;99.90
39345;DHT22;25061;51.954;6.996;2023-10-19T09:05:20;14.00;99.90
39345;DHT22;25061;51.954;6.996;2023-10-19T09:07:56;14.10;99.90
39345;DHT22;25061;51.954;6.996;2023-10-19T09:10:26;14.20;99.90
39345;DHT22;25061;51.954;6.996;2023-10-19T09:13:03;14.10;99.90
39345;DHT22;25061;51.954;6.996;2023-10-19T09:15:30;14.30;99.90
39345;DHT22;25061;51.954;6.996;2023-10-19T09:17:58;14.40;99.90
39345;DHT22;25061;51.954;6.996;2023-10-19T09:20:36;14.40;99.90
39345;DHT22;25061;51.954;6.996;2023-10-19T09:23:02;14.50;99.90
39345;DHT22;25061;51.954;6.996;2023-10-19T09:25:28;14.50;99.90
39345;DHT22;25061;51.954;6.996;2023-10-19T09:27:54;14.50;99.90
39345;DHT22;25061;51.954;6.996;2023-10-19T09:30:21;14.50;99.90
39345;DHT22;25061;51.954;6.996;2023-10-19T09:32:48;14.50;99.90
39345;DHT22;25061;51.954;6.996;2023-10-19T09:35:15;14.70;99.90
39345;DHT22;25061;51.954;6.996;2023-10-19T09:37:44;14.90;99.90
39345;DHT22;25061;51.954;6.996;2023-10-19T09:40:10;14.80;99.90
39345;DHT22;25061;51.954;6.996;2023-10-19T09:42:47;15.00;99.90
39345;DHT22;25061;51.954;6.996;2023-10-19T09:45:19;15.00;99.90
39345;DHT22;25061;51.954;6.996;2023-10-19T09:47:50;15.00;99.90
39345;DHT22;25061;51.954;6.996;2023-10-19T09:50:16;14.90;99.90
39345;DHT22;25061;51.954;6.996;2023-10-19T09:52:42;14.90;99.90
39345;DHT22;25061;51.954;6.996;2023-10-19T09:58:02;14.90;99.90
39345;DHT22;25061;51.954;6.996;2023-10-19T10:00:29;15.00;99.90
39345;DHT22;25061;51.954;6.996;2023-10-19T10:02:57;14.90;99.90
39345;DHT22;25061;51.954;6.996;2023-10-19T10:10:48;15.00;99.90
39345;DHT22;25061;51.954;6.996;2023-10-19T10:15:54;15.10;99.90
39345;DHT22;25061;51.954;6.996;2023-10-19T10:18:27;15.20;99.90
39345;DHT22;25061;51.954;6.996;2023-10-19T10:21:08;15.20;99.90
39345;DHT22;25061;51.954;6.996;2023-10-19T10:23:46;15.40;99.90
39345;DHT22;25061;51.954;6.996;2023-10-19T10:26:14;15.40;99.90
39345;DHT22;25061;51.954;6.996;2023-10-19T10:28:40;15.40;99.90
39345;DHT22;25061;51.954;6.996;2023-10-19T10:33:43;15.60;99.90
39345;DHT22;25061;51.954;6.996;2023-10-19T10:36:13;15.60;99.90
39345;DHT22;25061;51.954;6.996;2023-10-19T10:38:40;15.60;99.90
39345;DHT22;25061;51.954;6.996;2023-10-19T10:41:07;15.70;99.90
39345;DHT22;25061;51.954;6.996;2023-10-19T10:43:48;15.70;99.90
39345;DHT22;25061;51.954;6.996;2023-10-19T10:46:15;15.80;99.90
39345;DHT22;25061;51.954;6.996;2023-10-19T10:48:42;16.10;99.90
39345;DHT22;25061;51.954;6.996;2023-10-19T10:51:25;16.30;99.90
39345;DHT22;25061;51.954;6.996;2023-10-19T10:53:52;16.70;99.90
39345;DHT22;25061;51.954;6.996;2023-10-19T10:56:20;16.50;99.90
39345;DHT22;25061;51.954;6.996;2023-10-19T10:58:46;16.50;99.90
39345;DHT22;25061;51.954;6.996;2023-10-19T11:01:12;16.30;99.90
39345;DHT22;25061;51.954;6.996;2023-10-19T11:03:42;16.30;99.90
39345;DHT22;25061;51.954;6.996;2023-10-19T11:06:11;16.20;99.90
39345;DHT22;25061;51.954;6.996;2023-10-19T11:08:37;16.10;99.90
39345;DHT22;25061;51.954;6.996;2023-10-19T11:11:08;16.10;99.90
39345;DHT22;25061;51.954;6.996;2023-10-19T11:13:38;16.10;99.90
39345;DHT22;25061;51.954;6.996;2023-10-19T11:16:05;16.20;99.90
39345;DHT22;25061;51.954;6.996;2023-10-19T11:18:39;16.10;99.90
39345;DHT22;25061;51.954;6.996;2023-10-19T11:21:10;16.10;99.90
39345;DHT22;25061;51.954;6.996;2023-10-19T11:23:38;16.20;99.90
39345;DHT22;25061;51.954;6.996;2023-10-19T11:26:04;16.20;99.90
39345;DHT22;25061;51.954;6.996;2023-10-19T11:28:33;16.20;99.90
39345;DHT22;25061;51.954;6.996;2023-10-19T11:31:18;16.20;99.90
39345;DHT22;25061;51.954;6.996;2023-10-19T11:33:48;16.30;99.90
39345;DHT22;25061;51.954;6.996;2023-10-19T11:36:15;16.40;99.90
39345;DHT22;25061;51.954;6.996;2023-10-19T11:38:45;16.50;99.90
39345;DHT22;25061;51.954;6.996;2023-10-19T11:41:12;16.50;99.90
39345;DHT22;25061;51.954;6.996;2023-10-19T11:43:43;16.50;99.90
39345;DHT22;25061;51.954;6.996;2023-10-19T11:46:10;16.50;99.90
39345;DHT22;25061;51.954;6.996;2023-10-19T11:48:37;16.60;99.90
39345;DHT22;25061;51.954;6.996;2023-10-19T11:51:03;16.50;99.90
39345;DHT22;25061;51.954;6.996;2023-10-19T11:53:34;16.60;99.90
39345;DHT22;25061;51.954;6.996;2023-10-19T11:56:01;16.70;99.90
39345;DHT22;25061;51.954;6.996;2023-10-19T11:58:27;16.70;99.90
39345;DHT22;25061;51.954;6.996;2023-10-19T12:00:53;16.90;99.90
39345;DHT22;25061;51.954;6.996;2023-10-19T12:03:20;16.80;99.90
39345;DHT22;25061;51.954;6.996;2023-10-19T12:05:46;17.10;99.90
39345;DHT22;25061;51.954;6.996;2023-10-19T12:08:11;16.90;99.90
39345;DHT22;25061;51.954;6.996;2023-10-19T12:10:38;17.00;99.90
39345;DHT22;25061;51.954;6.996;2023-10-19T12:13:07;17.10;99.90
39345;DHT22;25061;51.954;6.996;2023-10-19T12:15:34;17.30;99.90
39345;DHT22;25061;51.954;6.996;2023-10-19T12:18:00;17.30;99.90
39345;DHT22;25061;51.954;6.996;2023-10-19T12:20:27;17.30;99.90
39345;DHT22;25061;51.954;6.996;2023-10-19T12:22:53;17.60;99.90
39345;DHT22;25061;51.954;6.996;2023-10-19T12:25:22;17.70;99.90
39345;DHT22;25061;51.954;6.996;2023-10-19T12:28:00;17.50;99.90
39345;DHT22;25061;51.954;6.996;2023-10-19T12:30:26;17.50;99.90
39345;DHT22;25061;51.954;6.996;2023-10-19T12:32:59;17.40;99.90
39345;DHT22;25061;51.954;6.996;2023-10-19T12:35:25;17.30;99.90
39345;DHT22;25061;51.954;6.996;2023-10-19T12:38:07;17.30;99.90
39345;DHT22;25061;51.954;6.996;2023-10-19T12:40:41;17.20;99.90
39345;DHT22;25061;51.954;6.996;2023-10-19T12:43:10;17.20;99.90
39345;DHT22;25061;51.954;6.996;2023-10-19T12:45:36;17.20;99.90
39345;DHT22;25061;51.954;6.996;2023-10-19T12:48:03;17.10;99.90
39345;DHT22;25061;51.954;6.996;2023-10-19T12:50:30;17.20;99.90
39345;DHT22;25061;51.954;6.996;2023-10-19T12:52:56;17.20;99.90
39345;DHT22;25061;51.954;6.996;2023-10-19T12:55:22;17.20;99.90
39345;DHT22;25061;51.954;6.996;2023-10-19T12:57:52;17.10;99.90
39345;DHT22;25061;51.954;6.996;2023-10-19T13:00:18;17.10;99.90
39345;DHT22;25061;51.954;6.996;2023-10-19T13:02:51;17.10;99.90
39345;DHT22;25061;51.954;6.996;2023-10-19T13:05:28;17.10;99.90
39345;DHT22;25061;51.954;6.996;2023-10-19T13:07:57;17.20;99.90
39345;DHT22;25061;51.954;6.996;2023-10-19T13:10:27;17.30;99.90
39345;DHT22;25061;51.954;6.996;2023-10-19T13:12:54;17.20;99.90
39345;DHT22;25061;51.954;6.996;2023-10-19T13:15:19;17.20;99.90
39345;DHT22;25061;51.954;6.996;2023-10-19T13:17:48;17.10;99.90
39345;DHT22;25061;51.954;6.996;2023-10-19T13:20:13;17.00;99.90
39345;DHT22;25061;51.954;6.996;2023-10-19T13:22:43;17.00;99.90
39345;DHT22;25061;51.954;6.996;2023-10-19T13:25:10;17.00;99.90
39345;DHT22;25061;51.954;6.996;2023-10-19T13:27:39;17.00;99.90
39345;DHT22;25061;51.954;6.996;2023-10-19T13:30:07;17.00;99.90
39345;DHT22;25061;51.954;6.996;2023-10-19T13:32:36;16.90;99.90
39345;DHT22;25061;51.954;6.996;2023-10-19T13:35:02;16.90;99.90
39345;DHT22;25061;51.954;6.996;2023-10-19T13:37:27;16.90;99.90
39345;DHT22;25061;51.954;6.996;2023-10-19T13:39:53;16.90;99.90
39345;DHT22;25061;51.954;6.996;2023-10-19T13:42:20;16.90;99.90
39345;DHT22;25061;51.954;6.996;2023-10-19T13:44:47;16.90;99.90
39345;DHT22;25061;51.954;6.996;2023-10-19T13:47:13;16.90;99.90
39345;DHT22;25061;51.954;6.996;2023-10-19T13:49:38;16.80;99.90
39345;DHT22;25061;51.954;6.996;2023-10-19T13:52:04;16.90;99.90
39345;DHT22;25061;51.954;6.996;2023-10-19T13:54:30;16.90;99.90
39345;DHT22;25061;51.954;6.996;2023-10-19T13:56:56;16.90;99.90
39345;DHT22;25061;51.954;6.996;2023-10-19T13:59:21;16.80;99.90
39345;DHT22;25061;51.954;6.996;2023-10-19T14:01:49;16.70;99.90
39345;DHT22;25061;51.954;6.996;2023-10-19T14:04:16;16.80;99.90
39345;DHT22;25061;51.954;6.996;2023-10-19T14:06:41;16.70;99.90
39345;DHT22;25061;51.954;6.996;2023-10-19T14:09:08;16.70;99.90
39345;DHT22;25061;51.954;6.996;2023-10-19T14:11:38;16.70;99.90
39345;DHT22;25061;51.954;6.996;2023-10-19T14:14:03;16.70;99.90
39345;DHT22;25061;51.954;6.996;2023-10-19T14:16:30;16.70;99.90
39345;DHT22;25061;51.954;6.996;2023-10-19T14:18:56;16.60;99.90
39345;DHT22;25061;51.954;6.996;2023-10-19T14:21:22;16.60;99.90
39345;DHT22;25061;51.954;6.996;2023-10-19T14:23:52;16.60;99.90
39345;DHT22;25061;51.954;6.996;2023-10-19T14:26:18;16.50;99.90
39345;DHT22;25061;51.954;6.996;2023-10-19T14:28:44;16.40;99.90
39345;DHT22;25061;51.954;6.996;2023-10-19T14:31:10;16.30;99.90
39345;DHT22;25061;51.954;6.996;2023-10-19T14:33:37;16.30;99.90
39345;DHT22;25061;51.954;6.996;2023-10-19T14:36:06;16.30;99.90
39345;DHT22;25061;51.954;6.996;2023-10-19T14:38:32;16.30;99.90
39345;DHT22;25061;51.954;6.996;2023-10-19T14:40:58;16.20;99.90
39345;DHT22;25061;51.954;6.996;2023-10-19T14:43:24;16.20;99.90
39345;DHT22;25061;51.954;6.996;2023-10-19T14:45:55;16.20;99.90
39345;DHT22;25061;51.954;6.996;2023-10-19T14:48:22;16.10;99.90
39345;DHT22;25061;51.954;6.996;2023-10-19T14:50:48;16.10;99.90
39345;DHT22;25061;51.954;6.996;2023-10-19T14:53:16;16.10;99.90
39345;DHT22;25061;51.954;6.996;2023-10-19T14:55:43;16.00;99.90
39345;DHT22;25061;51.954;6.996;2023-10-19T14:58:11;16.00;99.90
39345;DHT22;25061;51.954;6.996;2023-10-19T15:00:37;16.00;99.90
39345;DHT22;25061;51.954;6.996;2023-10-19T15:03:07;16.00;99.90
39345;DHT22;25061;51.954;6.996;2023-10-19T15:05:33;16.00;99.90
39345;DHT22;25061;51.954;6.996;2023-10-19T15:08:03;16.00;99.90
39345;DHT22;25061;51.954;6.996;2023-10-19T15:10:33;15.90;99.90
39345;DHT22;25061;51.954;6.996;2023-10-19T15:12:59;15.90;99.90
39345;DHT22;25061;51.954;6.996;2023-10-19T15:15:26;15.90;99.90
39345;DHT22;25061;51.954;6.996;2023-10-19T15:17:52;15.90;99.90
39345;DHT22;25061;51.954;6.996;2023-10-19T15:20:19;15.90;99.90
39345;DHT22;25061;51.954;6.996;2023-10-19T15:22:45;15.90;99.90
39345;DHT22;25061;51.954;6.996;2023-10-19T15:25:12;15.80;99.90
39345;DHT22;25061;51.954;6.996;2023-10-19T15:27:43;15.80;99.90
39345;DHT22;25061;51.954;6.996;2023-10-19T15:30:10;15.80;99.90
39345;DHT22;25061;51.954;6.996;2023-10-19T15:32:39;15.70;99.90
39345;DHT22;25061;51.954;6.996;2023-10-19T15:35:13;15.70;99.90
39345;DHT22;25061;51.954;6.996;2023-10-19T15:37:45;15.60;99.90
39345;DHT22;25061;51.954;6.996;2023-10-19T15:40:14;15.60;99.90
39345;DHT22;25061;51.954;6.996;2023-10-19T15:42:40;15.60;99.90
39345;DHT22;25061;51.954;6.996;2023-10-19T15:45:11;15.60;99.90
39345;DHT22;25061;51.954;6.996;2023-10-19T15:47:38;15.50;99.90
39345;DHT22;25061;51.954;6.996;2023-10-19T15:50:04;15.50;99.90
39345;DHT22;25061;51.954;6.996;2023-10-19T15:52:29;15.50;99.90
39345;DHT22;25061;51.954;6.996;2023-10-19T15:54:57;15.40;99.90
39345;DHT22;25061;51.954;6.996;2023-10-19T15:57:23;15.50;99.90
39345;DHT22;25061;51.954;6.996;2023-10-19T15:59:50;15.50;99.90
39345;DHT22;25061;51.954;6.996;2023-10-19T16:02:16;15.40;99.90
39345;DHT22;25061;51.954;6.996;2023-10-19T16:04:42;15.40;99.90
39345;DHT22;25061;51.954;6.996;2023-10-19T16:07:13;15.40;99.90
39345;DHT22;25061;51.954;6.996;2023-10-19T16:09:39;15.40;99.90
39345;DHT22;25061;51.954;6.996;2023-10-19T16:12:06;15.30;99.90
39345;DHT22;25061;51.954;6.996;2023-10-19T16:14:38;15.30;99.90
39345;DHT22;25061;51.954;6.996;2023-10-19T16:17:06;15.30;99.90
39345;DHT22;25061;51.954;6.996;2023-10-19T16:19:31;15.30;99.90
39345;DHT22;25061;51.954;6.996;2023-10-19T16:21:58;15.30;99.90
39345;DHT22;25061;51.954;6.996;2023-10-19T16:24:24;15.30;99.90
39345;DHT22;25061;51.954;6.996;2023-10-19T16:26:51;15.20;99.90
39345;DHT22;25061;51.954;6.996;2023-10-19T16:29:17;15.30;99.90
39345;DHT22;25061;51.954;6.996;2023-10-19T16:31:44;15.20;99.90
39345;DHT22;25061;51.954;6.996;2023-10-19T16:34:14;15.30;99.90
39345;DHT22;25061;51.954;6.996;2023-10-19T16:36:41;15.20;99.90
39345;DHT22;25061;51.954;6.996;2023-10-19T16:39:07;15.20;99.90
39345;DHT22;25061;51.954;6.996;2023-10-19T16:41:34;15.20;99.90
39345;DHT22;25061;51.954;6.996;2023-10-19T16:44:01;15.20;99.90
39345;DHT22;25061;51.954;6.996;2023-10-19T16:46:26;15.20;99.90
39345;DHT22;25061;51.954;6.996;2023-10-19T16:48:54;15.20;99.90
39345;DHT22;25061;51.954;6.996;2023-10-19T16:51:20;15.10;99.90
39345;DHT22;25061;51.954;6.996;2023-10-19T16:53:46;15.10;99.90
39345;DHT22;25061;51.954;6.996;2023-10-19T16:56:14;15.10;99.90
39345;DHT22;25061;51.954;6.996;2023-10-19T16:58:40;15.00;99.90
39345;DHT22;25061;51.954;6.996;2023-10-19T17:01:07;15.00;99.90
39345;DHT22;25061;51.954;6.996;2023-10-19T17:03:36;15.10;99.90
39345;DHT22;25061;51.954;6.996;2023-10-19T17:06:02;15.00;99.90
39345;DHT22;25061;51.954;6.996;2023-10-19T17:08:27;15.00;99.90
39345;DHT22;25061;51.954;6.996;2023-10-19T17:10:55;15.00;99.90
39345;DHT22;25061;51.954;6.996;2023-10-19T17:13:21;15.00;99.90
39345;DHT22;25061;51.954;6.996;2023-10-19T17:15:47;15.00;99.90
39345;DHT22;25061;51.954;6.996;2023-10-19T17:18:13;15.00;99.90
39345;DHT22;25061;51.954;6.996;2023-10-19T17:20:39;14.90;99.90
39345;DHT22;25061;51.954;6.996;2023-10-19T17:23:06;14.90;99.90
39345;DHT22;25061;51.954;6.996;2023-10-19T17:25:34;14.90;99.90
39345;DHT22;25061;51.954;6.996;2023-10-19T17:28:01;14.90;99.90
39345;DHT22;25061;51.954;6.996;2023-10-19T17:30:26;14.90;99.90
39345;DHT22;25061;51.954;6.996;2023-10-19T17:32:52;14.90;99.90
39345;DHT22;25061;51.954;6.996;2023-10-19T17:35:18;14.90;99.90
39345;DHT22;25061;51.954;6.996;2023-10-19T17:37:45;14.90;99.90
39345;DHT22;25061;51.954;6.996;2023-10-19T17:40:11;14.80;99.90
39345;DHT22;25061;51.954;6.996;2023-10-19T17:42:37;14.80;99.90
39345;DHT22;25061;51.954;6.996;2023-10-19T17:45:03;14.90;99.90
39345;DHT22;25061;51.954;6.996;2023-10-19T17:47:30;14.80;99.90
39345;DHT22;25061;51.954;6.996;2023-10-19T17:49:55;14.70;99.90
39345;DHT22;25061;51.954;6.996;2023-10-19T17:52:21;14.70;99.90
39345;DHT22;25061;51.954;6.996;2023-10-19T17:54:47;14.80;99.90
39345;DHT22;25061;51.954;6.996;2023-10-19T17:57:15;14.70;99.90
39345;DHT22;25061;51.954;6.996;2023-10-19T17:59:42;14.70;99.90
39345;DHT22;25061;51.954;6.996;2023-10-19T18:02:08;14.70;99.90
39345;DHT22;25061;51.954;6.996;2023-10-19T18:04:37;14.80;99.90
39345;DHT22;25061;51.954;6.996;2023-10-19T18:07:03;14.70;99.90
39345;DHT22;25061;51.954;6.996;2023-10-19T18:09:30;14.70;99.90
39345;DHT22;25061;51.954;6.996;2023-10-19T18:11:57;14.70;99.90
39345;DHT22;25061;51.954;6.996;2023-10-19T18:14:23;14.80;99.90
39345;DHT22;25061;51.954;6.996;2023-10-19T18:16:48;14.80;99.90
39345;DHT22;25061;51.954;6.996;2023-10-19T18:19:16;14.80;99.90
39345;DHT22;25061;51.954;6.996;2023-10-19T18:21:43;14.70;99.90
39345;DHT22;25061;51.954;6.996;2023-10-19T18:24:09;14.70;99.90
39345;DHT22;25061;51.954;6.996;2023-10-19T18:26:35;14.70;99.90
39345;DHT22;25061;51.954;6.996;2023-10-19T18:29:02;14.60;99.90
39345;DHT22;25061;51.954;6.996;2023-10-19T18:31:29;14.40;99.90
39345;DHT22;25061;51.954;6.996;2023-10-19T18:33:58;14.50;99.90
39345;DHT22;25061;51.954;6.996;2023-10-19T18:36:28;14.50;99.90
39345;DHT22;25061;51.954;6.996;2023-10-19T18:38:59;14.50;99.90
39345;DHT22;25061;51.954;6.996;2023-10-19T18:41:25;14.50;99.90
39345;DHT22;25061;51.954;6.996;2023-10-19T18:43:54;14.50;99.90
39345;DHT22;25061;51.954;6.996;2023-10-19T18:46:24;14.40;99.90
39345;DHT22;25061;51.954;6.996;2023-10-19T18:48:52;14.30;99.90
39345;DHT22;25061;51.954;6.996;2023-10-19T18:51:18;14.40;99.90
39345;DHT22;25061;51.954;6.996;2023-10-19T18:53:44;14.30;99.90
39345;DHT22;25061;51.954;6.996;2023-10-19T18:56:10;14.20;99.90
39345;DHT22;25061;51.954;6.996;2023-10-19T18:58:35;14.40;99.90
39345;DHT22;25061;51.954;6.996;2023-10-19T19:01:04;14.40;99.90
39345;DHT22;25061;51.954;6.996;2023-10-19T19:03:32;14.20;99.90
39345;DHT22;25061;51.954;6.996;2023-10-19T19:05:59;14.20;99.90
39345;DHT22;25061;51.954;6.996;2023-10-19T19:08:26;14.20;99.90
39345;DHT22;25061;51.954;6.996;2023-10-19T19:10:54;14.00;99.90
39345;DHT22;25061;51.954;6.996;2023-10-19T19:13:20;14.00;99.90
39345;DHT22;25061;51.954;6.996;2023-10-19T19:15:49;14.10;99.90
39345;DHT22;25061;51.954;6.996;2023-10-19T19:18:16;14.00;99.90
39345;DHT22;25061;51.954;6.996;2023-10-19T19:20:41;14.00;99.90
39345;DHT22;25061;51.954;6.996;2023-10-19T19:23:07;13.90;99.90
39345;DHT22;25061;51.954;6.996;2023-10-19T19:25:37;13.90;99.90
39345;DHT22;25061;51.954;6.996;2023-10-19T19:28:06;13.90;99.90
39345;DHT22;25061;51.954;6.996;2023-10-19T19:30:35;13.90;99.90
39345;DHT22;25061;51.954;6.996;2023-10-19T19:33:01;13.90;99.90
39345;DHT22;25061;51.954;6.996;2023-10-19T19:35:27;13.80;99.90
39345;DHT22;25061;51.954;6.996;2023-10-19T19:37:55;13.70;99.90
39345;DHT22;25061;51.954;6.996;2023-10-19T19:40:21;13.70;99.90
39345;DHT22;25061;51.954;6.996;2023-10-19T19:42:48;13.70;99.90
39345;DHT22;25061;51.954;6.996;2023-10-19T19:45:14;13.60;99.90
39345;DHT22;25061;51.954;6.996;2023-10-19T19:47:41;13.60;99.90
39345;DHT22;25061;51.954;6.996;2023-10-19T19:50:10;13.60;99.90
39345;DHT22;25061;51.954;6.996;2023-10-19T19:52:37;13.60;99.90
39345;DHT22;25061;51.954;6.996;2023-10-19T19:55:07;13.60;99.90
39345;DHT22;25061;51.954;6.996;2023-10-19T19:57:34;13.70;99.90
39345;DHT22;25061;51.954;6.996;2023-10-19T20:00:03;13.70;99.90
39345;DHT22;25061;51.954;6.996;2023-10-19T20:02:42;13.70;99.90
39345;DHT22;25061;51.954;6.996;2023-10-19T20:05:15;13.70;99.90
39345;DHT22;25061;51.954;6.996;2023-10-19T20:07:42;13.70;99.90
39345;DHT22;25061;51.954;6.996;2023-10-19T20:10:09;13.60;99.90
39345;DHT22;25061;51.954;6.996;2023-10-19T20:12:39;13.60;99.90
39345;DHT22;25061;51.954;6.996;2023-10-19T20:15:06;13.50;99.90
39345;DHT22;25061;51.954;6.996;2023-10-19T20:17:39;13.50;99.90